sensor_id;sensor_type;location;lat;lon;timestamp;pressure;altitude;pressure_sealevel;temperature
33267;BMP180;19638;49.080;11.896;2022-07-30T00:01:04;96329.00;;;18.90
33267;BMP180;19638;49.080;11.896;2022-07-30T00:05:08;96329.00;;;18.90
33267;BMP180;19638;49.080;11.896;2022-07-30T00:09:11;96328.00;;;19.00
33267;BMP180;19638;49.080;11.896;2022-07-30T00:13:16;96319.00;;;19.10
33267;BMP180;19638;49.080;11.896;2022-07-30T00:17:19;96323.00;;;19.10
33267;BMP180;19638;49.080;11.896;2022-07-30T00:21:23;96325.00;;;19.20
33267;BMP180;19638;49.080;11.896;2022-07-30T00:25:37;96317.00;;;19.20
33267;BMP180;19638;49.080;11.896;2022-07-30T00:29:41;96309.00;;;19.30
33267;BMP180;19638;49.080;11.896;2022-07-30T00:33:45;96322.00;;;19.30
33267;BMP180;19638;49.080;11.896;2022-07-30T00:37:48;96314.00;;;19.40
33267;BMP180;19638;49.080;11.896;2022-07-30T00:41:54;96296.00;;;19.40
33267;BMP180;19638;49.080;11.896;2022-07-30T00:45:58;96307.00;;;19.50
33267;BMP180;19638;49.080;11.896;2022-07-30T00:50:02;96316.00;;;19.40
33267;BMP180;19638;49.080;11.896;2022-07-30T00:54:06;96311.00;;;19.40
33267;BMP180;19638;49.080;11.896;2022-07-30T00:58:09;96315.00;;;19.40
33267;BMP180;19638;49.080;11.896;2022-07-30T01:02:14;96304.00;;;19.30
33267;BMP180;19638;49.080;11.896;2022-07-30T01:06:17;96301.00;;;19.30
33267;BMP180;19638;49.080;11.896;2022-07-30T01:10:20;96303.00;;;19.30
33267;BMP180;19638;49.080;11.896;2022-07-30T01:14:23;96300.00;;;19.30
33267;BMP180;19638;49.080;11.896;2022-07-30T01:18:29;96294.00;;;19.30
33267;BMP180;19638;49.080;11.896;2022-07-30T01:22:54;96298.00;;;19.20
33267;BMP180;19638;49.080;11.896;2022-07-30T01:27:01;96302.00;;;19.20
33267;BMP180;19638;49.080;11.896;2022-07-30T01:31:07;96307.00;;;19.10
33267;BMP180;19638;49.080;11.896;2022-07-30T01:35:11;96309.00;;;19.00
33267;BMP180;19638;49.080;11.896;2022-07-30T01:39:16;96301.00;;;18.90
33267;BMP180;19638;49.080;11.896;2022-07-30T01:43:23;96303.00;;;18.90
33267;BMP180;19638;49.080;11.896;2022-07-30T01:47:28;96308.00;;;18.80
33267;BMP180;19638;49.080;11.896;2022-07-30T01:51:33;96307.00;;;18.80
33267;BMP180;19638;49.080;11.896;2022-07-30T01:55:39;96306.00;;;18.80
33267;BMP180;19638;49.080;11.896;2022-07-30T01:59:48;96302.00;;;18.80
33267;BMP180;19638;49.080;11.896;2022-07-30T02:03:52;96299.00;;;18.70
33267;BMP180;19638;49.080;11.896;2022-07-30T02:08:02;96306.00;;;18.70
33267;BMP180;19638;49.080;11.896;2022-07-30T02:12:08;96298.00;;;18.70
33267;BMP180;19638;49.080;11.896;2022-07-30T02:16:35;96298.00;;;18.70
33267;BMP180;19638;49.080;11.896;2022-07-30T02:20:43;96303.00;;;18.70
33267;BMP180;19638;49.080;11.896;2022-07-30T02:24:50;96307.00;;;18.70
33267;BMP180;19638;49.080;11.896;2022-07-30T02:28:55;96305.00;;;18.70
33267;BMP180;19638;49.080;11.896;2022-07-30T02:33:04;96304.00;;;18.70
33267;BMP180;19638;49.080;11.896;2022-07-30T02:37:11;96297.00;;;18.70
33267;BMP180;19638;49.080;11.896;2022-07-30T02:41:16;96295.00;;;18.60
33267;BMP180;19638;49.080;11.896;2022-07-30T02:45:21;96288.00;;;18.50
33267;BMP180;19638;49.080;11.896;2022-07-30T02:49:28;96285.00;;;18.40
33267;BMP180;19638;49.080;11.896;2022-07-30T02:53:33;96294.00;;;18.30
33267;BMP180;19638;49.080;11.896;2022-07-30T02:57:40;96290.00;;;18.20
33267;BMP180;19638;49.080;11.896;2022-07-30T03:01:45;96289.00;;;18.10
33267;BMP180;19638;49.080;11.896;2022-07-30T03:05:51;96295.00;;;18.00
33267;BMP180;19638;49.080;11.896;2022-07-30T03:09:55;96292.00;;;17.90
33267;BMP180;19638;49.080;11.896;2022-07-30T03:14:00;96292.00;;;17.80
33267;BMP180;19638;49.080;11.896;2022-07-30T03:18:04;96293.00;;;17.70
33267;BMP180;19638;49.080;11.896;2022-07-30T03:22:10;96296.00;;;17.60
33267;BMP180;19638;49.080;11.896;2022-07-30T03:26:15;96287.00;;;17.50
33267;BMP180;19638;49.080;11.896;2022-07-30T03:30:22;96287.00;;;17.50
33267;BMP180;19638;49.080;11.896;2022-07-30T03:34:26;96292.00;;;17.50
33267;BMP180;19638;49.080;11.896;2022-07-30T03:38:32;96289.00;;;17.50
33267;BMP180;19638;49.080;11.896;2022-07-30T03:42:36;96294.00;;;17.50
33267;BMP180;19638;49.080;11.896;2022-07-30T03:46:40;96301.00;;;17.50
33267;BMP180;19638;49.080;11.896;2022-07-30T03:50:44;96300.00;;;17.60
33267;BMP180;19638;49.080;11.896;2022-07-30T03:54:49;96301.00;;;17.50
33267;BMP180;19638;49.080;11.896;2022-07-30T03:58:53;96308.00;;;17.50
33267;BMP180;19638;49.080;11.896;2022-07-30T04:02:57;96308.00;;;17.50
33267;BMP180;19638;49.080;11.896;2022-07-30T04:07:00;96324.00;;;17.50
33267;BMP180;19638;49.080;11.896;2022-07-30T04:11:05;96314.00;;;17.50
33267;BMP180;19638;49.080;11.896;2022-07-30T04:15:09;96313.00;;;17.50
33267;BMP180;19638;49.080;11.896;2022-07-30T04:19:34;96310.00;;;17.50
33267;BMP180;19638;49.080;11.896;2022-07-30T04:23:41;96319.00;;;17.40
33267;BMP180;19638;49.080;11.896;2022-07-30T04:28:08;96329.00;;;17.40
33267;BMP180;19638;49.080;11.896;2022-07-30T04:32:11;96329.00;;;17.40
33267;BMP180;19638;49.080;11.896;2022-07-30T04:36:15;96329.00;;;17.40
33267;BMP180;19638;49.080;11.896;2022-07-30T04:40:18;96335.00;;;17.40
33267;BMP180;19638;49.080;11.896;2022-07-30T04:44:23;96338.00;;;17.50
33267;BMP180;19638;49.080;11.896;2022-07-30T04:48:26;96332.00;;;17.50
33267;BMP180;19638;49.080;11.896;2022-07-30T04:52:29;96337.00;;;17.60
33267;BMP180;19638;49.080;11.896;2022-07-30T04:56:34;96339.00;;;17.80
33267;BMP180;19638;49.080;11.896;2022-07-30T05:00:40;96340.00;;;18.00
33267;BMP180;19638;49.080;11.896;2022-07-30T05:04:46;96341.00;;;18.10
33267;BMP180;19638;49.080;11.896;2022-07-30T05:08:49;96340.00;;;18.30
33267;BMP180;19638;49.080;11.896;2022-07-30T05:12:52;96338.00;;;18.40
33267;BMP180;19638;49.080;11.896;2022-07-30T05:16:57;96334.00;;;18.30
33267;BMP180;19638;49.080;11.896;2022-07-30T05:21:01;96345.00;;;18.40
33267;BMP180;19638;49.080;11.896;2022-07-30T05:25:05;96344.00;;;18.50
33267;BMP180;19638;49.080;11.896;2022-07-30T05:29:17;96352.00;;;18.70
33267;BMP180;19638;49.080;11.896;2022-07-30T05:33:22;96345.00;;;18.90
33267;BMP180;19638;49.080;11.896;2022-07-30T05:37:43;96350.00;;;18.90
33267;BMP180;19638;49.080;11.896;2022-07-30T05:41:46;96347.00;;;19.10
33267;BMP180;19638;49.080;11.896;2022-07-30T05:45:49;96360.00;;;19.30
33267;BMP180;19638;49.080;11.896;2022-07-30T05:49:54;96334.00;;;19.40
33267;BMP180;19638;49.080;11.896;2022-07-30T05:54:05;96352.00;;;19.50
33267;BMP180;19638;49.080;11.896;2022-07-30T05:58:08;96358.00;;;19.60
33267;BMP180;19638;49.080;11.896;2022-07-30T06:02:11;96355.00;;;19.80
33267;BMP180;19638;49.080;11.896;2022-07-30T06:06:16;96359.00;;;20.10
33267;BMP180;19638;49.080;11.896;2022-07-30T06:10:24;96359.00;;;20.40
33267;BMP180;19638;49.080;11.896;2022-07-30T06:14:27;96361.00;;;20.60
33267;BMP180;19638;49.080;11.896;2022-07-30T06:18:30;96368.00;;;20.70
33267;BMP180;19638;49.080;11.896;2022-07-30T06:22:35;96357.00;;;20.90
33267;BMP180;19638;49.080;11.896;2022-07-30T06:26:39;96368.00;;;21.10
33267;BMP180;19638;49.080;11.896;2022-07-30T06:30:42;96377.00;;;21.20
33267;BMP180;19638;49.080;11.896;2022-07-30T06:34:46;96377.00;;;21.40
33267;BMP180;19638;49.080;11.896;2022-07-30T06:39:02;96378.00;;;21.60
33267;BMP180;19638;49.080;11.896;2022-07-30T06:43:05;96400.00;;;21.90
33267;BMP180;19638;49.080;11.896;2022-07-30T06:47:08;96392.00;;;22.00
33267;BMP180;19638;49.080;11.896;2022-07-30T06:51:12;96392.00;;;21.90
33267;BMP180;19638;49.080;11.896;2022-07-30T06:55:17;96401.00;;;21.80
33267;BMP180;19638;49.080;11.896;2022-07-30T06:59:21;96403.00;;;21.90
33267;BMP180;19638;49.080;11.896;2022-07-30T07:03:24;96407.00;;;22.10
33267;BMP180;19638;49.080;11.896;2022-07-30T07:07:41;96414.00;;;22.50
33267;BMP180;19638;49.080;11.896;2022-07-30T07:12:00;96404.00;;;22.60
33267;BMP180;19638;49.080;11.896;2022-07-30T07:16:07;96410.00;;;22.80
33267;BMP180;19638;49.080;11.896;2022-07-30T07:20:11;96402.00;;;22.90
33267;BMP180;19638;49.080;11.896;2022-07-30T07:24:14;96404.00;;;23.20
33267;BMP180;19638;49.080;11.896;2022-07-30T07:28:19;96406.00;;;23.30
33267;BMP180;19638;49.080;11.896;2022-07-30T07:32:34;96412.00;;;23.80
33267;BMP180;19638;49.080;11.896;2022-07-30T07:36:37;96405.00;;;24.50
33267;BMP180;19638;49.080;11.896;2022-07-30T07:40:41;96417.00;;;24.20
33267;BMP180;19638;49.080;11.896;2022-07-30T07:44:45;96410.00;;;24.10
33267;BMP180;19638;49.080;11.896;2022-07-30T07:48:48;96411.00;;;24.80
33267;BMP180;19638;49.080;11.896;2022-07-30T07:52:52;96410.00;;;25.00
33267;BMP180;19638;49.080;11.896;2022-07-30T07:56:56;96406.00;;;25.10
33267;BMP180;19638;49.080;11.896;2022-07-30T08:01:04;96412.00;;;24.80
33267;BMP180;19638;49.080;11.896;2022-07-30T08:05:09;96417.00;;;25.30
33267;BMP180;19638;49.080;11.896;2022-07-30T08:09:13;96418.00;;;25.50
33267;BMP180;19638;49.080;11.896;2022-07-30T08:13:16;96422.00;;;26.40
33267;BMP180;19638;49.080;11.896;2022-07-30T08:17:42;96435.00;;;26.30
33267;BMP180;19638;49.080;11.896;2022-07-30T08:21:45;96439.00;;;26.80
33267;BMP180;19638;49.080;11.896;2022-07-30T08:25:48;96437.00;;;26.80
33267;BMP180;19638;49.080;11.896;2022-07-30T08:29:54;96436.00;;;26.20
33267;BMP180;19638;49.080;11.896;2022-07-30T08:34:00;96445.00;;;26.30
33267;BMP180;19638;49.080;11.896;2022-07-30T08:38:03;96439.00;;;26.80
33267;BMP180;19638;49.080;11.896;2022-07-30T08:42:07;96449.00;;;26.20
33267;BMP180;19638;49.080;11.896;2022-07-30T08:46:12;96452.00;;;26.50
33267;BMP180;19638;49.080;11.896;2022-07-30T08:50:17;96445.00;;;26.50
33267;BMP180;19638;49.080;11.896;2022-07-30T08:54:21;96450.00;;;26.90
33267;BMP180;19638;49.080;11.896;2022-07-30T08:58:27;96458.00;;;27.70
33267;BMP180;19638;49.080;11.896;2022-07-30T09:02:31;96450.00;;;28.00
33267;BMP180;19638;49.080;11.896;2022-07-30T09:06:36;96452.00;;;28.20
33267;BMP180;19638;49.080;11.896;2022-07-30T09:10:43;96461.00;;;27.70
33267;BMP180;19638;49.080;11.896;2022-07-30T09:15:01;96454.00;;;27.90
33267;BMP180;19638;49.080;11.896;2022-07-30T09:19:13;96459.00;;;28.20
33267;BMP180;19638;49.080;11.896;2022-07-30T09:23:18;96460.00;;;28.10
33267;BMP180;19638;49.080;11.896;2022-07-30T09:27:21;96458.00;;;28.20
33267;BMP180;19638;49.080;11.896;2022-07-30T09:31:25;96455.00;;;28.50
33267;BMP180;19638;49.080;11.896;2022-07-30T09:35:33;96460.00;;;28.60
33267;BMP180;19638;49.080;11.896;2022-07-30T09:39:40;96462.00;;;29.00
33267;BMP180;19638;49.080;11.896;2022-07-30T09:44:02;96453.00;;;29.20
33267;BMP180;19638;49.080;11.896;2022-07-30T09:48:20;96466.00;;;29.90
33267;BMP180;19638;49.080;11.896;2022-07-30T09:52:27;96464.00;;;29.90
33267;BMP180;19638;49.080;11.896;2022-07-30T09:56:32;96464.00;;;29.60
33267;BMP180;19638;49.080;11.896;2022-07-30T10:00:37;96467.00;;;29.90
33267;BMP180;19638;49.080;11.896;2022-07-30T10:04:43;96472.00;;;29.50
33267;BMP180;19638;49.080;11.896;2022-07-30T10:08:49;96457.00;;;29.50
33267;BMP180;19638;49.080;11.896;2022-07-30T10:12:57;96459.00;;;30.60
33267;BMP180;19638;49.080;11.896;2022-07-30T10:17:02;96456.00;;;31.00
33267;BMP180;19638;49.080;11.896;2022-07-30T10:21:07;96458.00;;;29.50
33267;BMP180;19638;49.080;11.896;2022-07-30T10:25:10;96455.00;;;28.10
33267;BMP180;19638;49.080;11.896;2022-07-30T10:29:19;96462.00;;;28.10
33267;BMP180;19638;49.080;11.896;2022-07-30T10:33:35;96440.00;;;28.50
33267;BMP180;19638;49.080;11.896;2022-07-30T10:37:44;96444.00;;;29.90
33267;BMP180;19638;49.080;11.896;2022-07-30T10:41:58;96448.00;;;30.40
33267;BMP180;19638;49.080;11.896;2022-07-30T10:51:43;96434.00;;;29.10
33267;BMP180;19638;49.080;11.896;2022-07-30T10:56:18;96442.00;;;29.10
33267;BMP180;19638;49.080;11.896;2022-07-30T11:00:57;96432.00;;;28.70
33267;BMP180;19638;49.080;11.896;2022-07-30T11:05:34;96432.00;;;29.00
33267;BMP180;19638;49.080;11.896;2022-07-30T11:10:32;96438.00;;;29.50
33267;BMP180;19638;49.080;11.896;2022-07-30T11:14:55;96428.00;;;29.30
33267;BMP180;19638;49.080;11.896;2022-07-30T11:19:31;96430.00;;;28.90
33267;BMP180;19638;49.080;11.896;2022-07-30T11:29:13;96422.00;;;29.30
33267;BMP180;19638;49.080;11.896;2022-07-30T11:33:34;96422.00;;;30.70
33267;BMP180;19638;49.080;11.896;2022-07-30T11:38:11;96430.00;;;31.70
33267;BMP180;19638;49.080;11.896;2022-07-30T11:42:47;96416.00;;;31.90
33267;BMP180;19638;49.080;11.896;2022-07-30T11:47:26;96410.00;;;32.80
33267;BMP180;19638;49.080;11.896;2022-07-30T11:51:39;96429.00;;;31.80
33267;BMP180;19638;49.080;11.896;2022-07-30T11:55:44;96435.00;;;31.50
33267;BMP180;19638;49.080;11.896;2022-07-30T11:59:54;96437.00;;;31.70
33267;BMP180;19638;49.080;11.896;2022-07-30T12:09:22;96435.00;;;32.40
33267;BMP180;19638;49.080;11.896;2022-07-30T12:13:54;96439.00;;;31.90
33267;BMP180;19638;49.080;11.896;2022-07-30T12:18:18;96437.00;;;31.10
33267;BMP180;19638;49.080;11.896;2022-07-30T12:22:49;96459.00;;;30.80
33267;BMP180;19638;49.080;11.896;2022-07-30T12:27:27;96453.00;;;30.10
33267;BMP180;19638;49.080;11.896;2022-07-30T12:36:38;96452.00;;;28.20
33267;BMP180;19638;49.080;11.896;2022-07-30T12:40:54;96448.00;;;27.80
33267;BMP180;19638;49.080;11.896;2022-07-30T12:44:59;96469.00;;;27.80
33267;BMP180;19638;49.080;11.896;2022-07-30T12:49:33;96454.00;;;27.20
33267;BMP180;19638;49.080;11.896;2022-07-30T12:58:15;96443.00;;;27.30
33267;BMP180;19638;49.080;11.896;2022-07-30T13:02:31;96445.00;;;27.50
33267;BMP180;19638;49.080;11.896;2022-07-30T13:07:02;96457.00;;;27.60
33267;BMP180;19638;49.080;11.896;2022-07-30T13:16:13;96467.00;;;28.70
33267;BMP180;19638;49.080;11.896;2022-07-30T13:20:51;96454.00;;;28.40
33267;BMP180;19638;49.080;11.896;2022-07-30T13:30:02;96447.00;;;27.30
33267;BMP180;19638;49.080;11.896;2022-07-30T13:34:40;96449.00;;;27.60
33267;BMP180;19638;49.080;11.896;2022-07-30T13:39:18;96435.00;;;28.40
33267;BMP180;19638;49.080;11.896;2022-07-30T13:43:52;96424.00;;;28.90
33267;BMP180;19638;49.080;11.896;2022-07-30T13:48:30;96434.00;;;29.20
33267;BMP180;19638;49.080;11.896;2022-07-30T13:52:33;96446.00;;;28.70
33267;BMP180;19638;49.080;11.896;2022-07-30T14:01:49;96444.00;;;27.70
33267;BMP180;19638;49.080;11.896;2022-07-30T14:06:23;96443.00;;;27.60
33267;BMP180;19638;49.080;11.896;2022-07-30T14:11:01;96441.00;;;27.80
33267;BMP180;19638;49.080;11.896;2022-07-30T14:15:38;96457.00;;;27.90
33267;BMP180;19638;49.080;11.896;2022-07-30T14:20:17;96462.00;;;27.40
33267;BMP180;19638;49.080;11.896;2022-07-30T14:24:55;96473.00;;;26.70
33267;BMP180;19638;49.080;11.896;2022-07-30T14:29:32;96464.00;;;25.50
33267;BMP180;19638;49.080;11.896;2022-07-30T14:34:08;96457.00;;;23.80
33267;BMP180;19638;49.080;11.896;2022-07-30T14:38:13;96437.00;;;23.10
33267;BMP180;19638;49.080;11.896;2022-07-30T14:42:47;96434.00;;;22.80
33267;BMP180;19638;49.080;11.896;2022-07-30T14:47:24;96439.00;;;22.90
33267;BMP180;19638;49.080;11.896;2022-07-30T14:51:49;96437.00;;;23.20
33267;BMP180;19638;49.080;11.896;2022-07-30T14:56:28;96439.00;;;23.60
33267;BMP180;19638;49.080;11.896;2022-07-30T15:01:02;96440.00;;;24.10
33267;BMP180;19638;49.080;11.896;2022-07-30T15:10:35;96443.00;;;25.30
33267;BMP180;19638;49.080;11.896;2022-07-30T15:15:10;96450.00;;;26.00
33267;BMP180;19638;49.080;11.896;2022-07-30T15:19:46;96451.00;;;27.00
33267;BMP180;19638;49.080;11.896;2022-07-30T15:24:22;96454.00;;;28.10
33267;BMP180;19638;49.080;11.896;2022-07-30T15:28:58;96452.00;;;28.30
33267;BMP180;19638;49.080;11.896;2022-07-30T15:33:36;96453.00;;;28.50
33267;BMP180;19638;49.080;11.896;2022-07-30T15:37:43;96457.00;;;28.60
33267;BMP180;19638;49.080;11.896;2022-07-30T15:42:20;96467.00;;;29.00
33267;BMP180;19638;49.080;11.896;2022-07-30T15:46:57;96464.00;;;29.30
33267;BMP180;19638;49.080;11.896;2022-07-30T15:51:03;96471.00;;;28.70
33267;BMP180;19638;49.080;11.896;2022-07-30T15:55:37;96467.00;;;27.90
33267;BMP180;19638;49.080;11.896;2022-07-30T16:00:12;96473.00;;;27.50
33267;BMP180;19638;49.080;11.896;2022-07-30T16:04:49;96475.00;;;26.90
33267;BMP180;19638;49.080;11.896;2022-07-30T16:09:28;96474.00;;;26.70
33267;BMP180;19638;49.080;11.896;2022-07-30T16:13:32;96467.00;;;27.00
33267;BMP180;19638;49.080;11.896;2022-07-30T16:17:35;96483.00;;;26.90
33267;BMP180;19638;49.080;11.896;2022-07-30T16:26:48;96475.00;;;26.90
33267;BMP180;19638;49.080;11.896;2022-07-30T16:31:26;96492.00;;;26.80
33267;BMP180;19638;49.080;11.896;2022-07-30T16:36:02;96503.00;;;26.70
33267;BMP180;19638;49.080;11.896;2022-07-30T16:40:39;96502.00;;;27.10
33267;BMP180;19638;49.080;11.896;2022-07-30T16:45:18;96496.00;;;27.30
33267;BMP180;19638;49.080;11.896;2022-07-30T16:49:52;96505.00;;;27.10
33267;BMP180;19638;49.080;11.896;2022-07-30T16:59:03;96504.00;;;27.00
33267;BMP180;19638;49.080;11.896;2022-07-30T17:03:41;96502.00;;;27.00
33267;BMP180;19638;49.080;11.896;2022-07-30T17:07:44;96511.00;;;26.60
33267;BMP180;19638;49.080;11.896;2022-07-30T17:12:18;96513.00;;;26.60
33267;BMP180;19638;49.080;11.896;2022-07-30T17:16:26;96519.00;;;26.90
33267;BMP180;19638;49.080;11.896;2022-07-30T17:20:31;96520.00;;;26.70
33267;BMP180;19638;49.080;11.896;2022-07-30T17:24:34;96535.00;;;26.60
33267;BMP180;19638;49.080;11.896;2022-07-30T17:33:15;96527.00;;;26.30
33267;BMP180;19638;49.080;11.896;2022-07-30T17:37:54;96522.00;;;26.30
33267;BMP180;19638;49.080;11.896;2022-07-30T17:41:57;96524.00;;;26.10
33267;BMP180;19638;49.080;11.896;2022-07-30T17:51:11;96525.00;;;26.10
33267;BMP180;19638;49.080;11.896;2022-07-30T17:55:50;96528.00;;;25.90
33267;BMP180;19638;49.080;11.896;2022-07-30T18:00:26;96525.00;;;25.50
33267;BMP180;19638;49.080;11.896;2022-07-30T18:04:29;96521.00;;;24.90
33267;BMP180;19638;49.080;11.896;2022-07-30T18:08:32;96524.00;;;24.40
33267;BMP180;19638;49.080;11.896;2022-07-30T18:17:29;96532.00;;;23.50
33267;BMP180;19638;49.080;11.896;2022-07-30T18:21:33;96530.00;;;23.30
33267;BMP180;19638;49.080;11.896;2022-07-30T18:25:39;96530.00;;;23.10
33267;BMP180;19638;49.080;11.896;2022-07-30T18:29:53;96537.00;;;22.90
33267;BMP180;19638;49.080;11.896;2022-07-30T18:33:58;96539.00;;;22.80
33267;BMP180;19638;49.080;11.896;2022-07-30T18:38:32;96536.00;;;22.60
33267;BMP180;19638;49.080;11.896;2022-07-30T18:43:09;96540.00;;;22.40
33267;BMP180;19638;49.080;11.896;2022-07-30T18:47:13;96539.00;;;22.30
33267;BMP180;19638;49.080;11.896;2022-07-30T18:51:22;96548.00;;;22.20
33267;BMP180;19638;49.080;11.896;2022-07-30T18:55:59;96545.00;;;22.10
33267;BMP180;19638;49.080;11.896;2022-07-30T19:00:36;96558.00;;;21.90
33267;BMP180;19638;49.080;11.896;2022-07-30T19:04:50;96560.00;;;21.80
33267;BMP180;19638;49.080;11.896;2022-07-30T19:08:57;96563.00;;;21.70
33267;BMP180;19638;49.080;11.896;2022-07-30T19:13:31;96563.00;;;21.50
33267;BMP180;19638;49.080;11.896;2022-07-30T19:17:34;96571.00;;;21.40
33267;BMP180;19638;49.080;11.896;2022-07-30T19:22:08;96571.00;;;21.30
33267;BMP180;19638;49.080;11.896;2022-07-30T19:26:13;96572.00;;;21.10
33267;BMP180;19638;49.080;11.896;2022-07-30T19:30:48;96573.00;;;21.00
33267;BMP180;19638;49.080;11.896;2022-07-30T19:34:51;96574.00;;;20.90
33267;BMP180;19638;49.080;11.896;2022-07-30T19:39:25;96575.00;;;20.90
33267;BMP180;19638;49.080;11.896;2022-07-30T19:43:30;96580.00;;;20.80
33267;BMP180;19638;49.080;11.896;2022-07-30T19:48:04;96589.00;;;20.60
33267;BMP180;19638;49.080;11.896;2022-07-30T19:52:41;96588.00;;;20.30
33267;BMP180;19638;49.080;11.896;2022-07-30T19:57:04;96591.00;;;20.00
33267;BMP180;19638;49.080;11.896;2022-07-30T20:01:09;96582.00;;;19.80
33267;BMP180;19638;49.080;11.896;2022-07-30T20:05:42;96589.00;;;19.60
33267;BMP180;19638;49.080;11.896;2022-07-30T20:10:18;96584.00;;;19.30
33267;BMP180;19638;49.080;11.896;2022-07-30T20:14:52;96593.00;;;19.10
33267;BMP180;19638;49.080;11.896;2022-07-30T20:18:57;96592.00;;;18.90
33267;BMP180;19638;49.080;11.896;2022-07-30T20:23:03;96594.00;;;18.80
33267;BMP180;19638;49.080;11.896;2022-07-30T20:27:40;96599.00;;;18.60
33267;BMP180;19638;49.080;11.896;2022-07-30T20:31:43;96597.00;;;18.50
33267;BMP180;19638;49.080;11.896;2022-07-30T20:36:22;96593.00;;;18.40
33267;BMP180;19638;49.080;11.896;2022-07-30T20:40:56;96595.00;;;18.20
33267;BMP180;19638;49.080;11.896;2022-07-30T20:45:33;96594.00;;;18.20
33267;BMP180;19638;49.080;11.896;2022-07-30T20:50:09;96593.00;;;18.10
33267;BMP180;19638;49.080;11.896;2022-07-30T20:54:47;96602.00;;;17.90
33267;BMP180;19638;49.080;11.896;2022-07-30T20:58:50;96600.00;;;17.90
33267;BMP180;19638;49.080;11.896;2022-07-30T21:02:56;96594.00;;;17.90
33267;BMP180;19638;49.080;11.896;2022-07-30T21:07:03;96600.00;;;17.90
33267;BMP180;19638;49.080;11.896;2022-07-30T21:11:08;96602.00;;;17.80
33267;BMP180;19638;49.080;11.896;2022-07-30T21:15:13;96607.00;;;17.70
33267;BMP180;19638;49.080;11.896;2022-07-30T21:19:49;96611.00;;;17.60
33267;BMP180;19638;49.080;11.896;2022-07-30T21:23:52;96615.00;;;17.50
33267;BMP180;19638;49.080;11.896;2022-07-30T21:27:56;96604.00;;;17.40
33267;BMP180;19638;49.080;11.896;2022-07-30T21:32:00;96600.00;;;17.40
33267;BMP180;19638;49.080;11.896;2022-07-30T21:36:04;96600.00;;;17.30
33267;BMP180;19638;49.080;11.896;2022-07-30T21:40:12;96598.00;;;17.20
33267;BMP180;19638;49.080;11.896;2022-07-30T21:44:37;96603.00;;;17.10
33267;BMP180;19638;49.080;11.896;2022-07-30T21:49:11;96609.00;;;17.00
33267;BMP180;19638;49.080;11.896;2022-07-30T21:53:48;96603.00;;;16.80
33267;BMP180;19638;49.080;11.896;2022-07-30T21:57:52;96601.00;;;16.70
33267;BMP180;19638;49.080;11.896;2022-07-30T22:02:28;96606.00;;;16.70
33267;BMP180;19638;49.080;11.896;2022-07-30T22:07:05;96610.00;;;16.70
33267;BMP180;19638;49.080;11.896;2022-07-30T22:15:47;96614.00;;;16.40
33267;BMP180;19638;49.080;11.896;2022-07-30T22:20:26;96615.00;;;16.30
33267;BMP180;19638;49.080;11.896;2022-07-30T22:24:29;96617.00;;;16.20
33267;BMP180;19638;49.080;11.896;2022-07-30T22:33:11;96611.00;;;16.10
33267;BMP180;19638;49.080;11.896;2022-07-30T22:37:48;96604.00;;;16.00
33267;BMP180;19638;49.080;11.896;2022-07-30T22:41:51;96594.00;;;16.00
33267;BMP180;19638;49.080;11.896;2022-07-30T22:46:28;96604.00;;;16.00
33267;BMP180;19638;49.080;11.896;2022-07-30T22:51:06;96614.00;;;16.00
33267;BMP180;19638;49.080;11.896;2022-07-30T23:00:21;96602.00;;;15.90
33267;BMP180;19638;49.080;11.896;2022-07-30T23:04:29;96601.00;;;15.90
33267;BMP180;19638;49.080;11.896;2022-07-30T23:08:33;96601.00;;;15.90
33267;BMP180;19638;49.080;11.896;2022-07-30T23:12:37;96606.00;;;15.80
33267;BMP180;19638;49.080;11.896;2022-07-30T23:17:13;96609.00;;;15.70
33267;BMP180;19638;49.080;11.896;2022-07-30T23:21:16;96612.00;;;15.70
33267;BMP180;19638;49.080;11.896;2022-07-30T23:25:50;96610.00;;;15.60
33267;BMP180;19638;49.080;11.896;2022-07-30T23:29:53;96608.00;;;15.50
33267;BMP180;19638;49.080;11.896;2022-07-30T23:34:12;96612.00;;;15.50
33267;BMP180;19638;49.080;11.896;2022-07-30T23:38:46;96611.00;;;15.40
33267;BMP180;19638;49.080;11.896;2022-07-30T23:43:23;96613.00;;;15.40
33267;BMP180;19638;49.080;11.896;2022-07-30T23:47:26;96611.00;;;15.40
33267;BMP180;19638;49.080;11.896;2022-07-30T23:52:03;96612.00;;;15.30
33267;BMP180;19638;49.080;11.896;2022-07-30T23:56:12;96607.00;;;15.30
